Time;durP1;ratioP1;P1;durP2;ratioP2;P2;SDS_P1;SDS_P2;PMS_P1;PMS_P2;Temp;Humidity;BMP_temperature;BMP_pressure;BME280_temperature;BME280_humidity;BME280_pressure;Samples;Min_cycle;Max_cycle;Signal;HPM_P1;HPM_P2
2024/01/01 00:00:40;;;;;;;133.80;64.20;;;;;;;3.92;99.05;99387.64;107781;1268;24330;-72
2024/01/01 00:03:52;;;;;;;136.80;68.40;;;;;;;3.97;99.13;99393.86;107678;1264;25014;-73
2024/01/01 00:06:43;;;;;;;137.60;69.50;;;;;;;4.00;98.95;99391.12;107763;1273;25405;-74
2024/01/01 00:09:34;;;;;;;138.40;71.50;;;;;;;4.03;99.14;99386.17;107725;1270;22539;-73
2024/01/01 00:12:24;;;;;;;137.70;69.00;;;;;;;4.07;99.11;99388.31;107875;1266;22528;-73
2024/01/01 00:15:15;;;;;;;138.50;71.90;;;;;;;4.10;99.03;99387.00;107694;1273;25187;-73
2024/01/01 00:18:07;;;;;;;130.10;68.70;;;;;;;4.15;99.01;99389.99;107703;1266;22539;-75
2024/01/01 00:20:58;;;;;;;141.30;72.90;;;;;;;4.18;99.12;99397.27;107701;1273;24190;-73
2024/01/01 00:23:49;;;;;;;149.20;71.20;;;;;;;4.20;99.03;99395.13;107717;1273;22707;-72
2024/01/01 00:26:40;;;;;;;128.00;69.50;;;;;;;4.23;99.08;99396.14;107705;1273;22541;-72
2024/01/01 00:29:31;;;;;;;136.50;73.50;;;;;;;4.24;99.05;99398.06;107721;1266;25067;-72
2024/01/01 00:32:22;;;;;;;132.10;72.20;;;;;;;4.26;99.07;99395.30;107708;1270;22737;-72
2024/01/01 00:35:13;;;;;;;137.00;73.40;;;;;;;4.27;99.04;99401.27;107786;1267;22623;-73
2024/01/01 00:38:04;;;;;;;144.10;74.50;;;;;;;4.28;99.16;99402.19;107692;1267;24341;-73
2024/01/01 00:40:55;;;;;;;148.60;77.00;;;;;;;4.29;99.21;99400.08;107703;1273;22651;-72
2024/01/01 00:43:46;;;;;;;144.70;70.50;;;;;;;4.30;99.23;99399.30;109388;1267;22189;-72
2024/01/01 00:46:37;;;;;;;132.40;69.90;;;;;;;4.31;99.39;99398.08;110680;1267;22243;-72
2024/01/01 00:49:28;;;;;;;119.50;63.70;;;;;;;4.33;99.40;99408.67;110648;1267;22099;-73
2024/01/01 00:52:18;;;;;;;125.10;64.60;;;;;;;4.33;99.49;99411.10;110736;1273;22196;-73
2024/01/01 00:55:10;;;;;;;119.10;59.50;;;;;;;4.33;99.51;99413.64;110632;1267;22637;-72
2024/01/01 00:58:01;;;;;;;119.00;56.20;;;;;;;4.35;99.71;99416.63;110669;1270;22254;-73
2024/01/01 01:00:52;;;;;;;109.90;53.80;;;;;;;4.38;99.74;99421.18;110678;1273;22266;-73
2024/01/01 01:03:43;;;;;;;99.30;50.80;;;;;;;4.39;99.91;99422.39;110692;1268;22253;-72
2024/01/01 01:06:33;;;;;;;94.60;48.30;;;;;;;4.42;100.00;99429.23;110714;1267;23519;-73
2024/01/01 01:09:22;;;;;;;;;;;;;;;4.44;100.00;99431.12;110677;1273;22384;-73
2024/01/01 01:12:13;;;;;;;89.00;40.40;;;;;;;4.45;100.00;99431.85;110649;1263;22308;-73
2024/01/01 01:15:05;;;;;;;90.90;43.90;;;;;;;4.47;100.00;99432.47;110671;1273;22357;-71
2024/01/01 01:17:56;;;;;;;82.00;42.10;;;;;;;4.50;100.00;99426.13;110681;1273;22107;-72
2024/01/01 01:20:45;;;;;;;;;;;;;;;4.52;100.00;99429.27;110697;1273;22371;-75
2024/01/01 01:23:35;;;;;;;82.90;41.20;;;;;;;4.54;100.00;99432.36;110442;1273;23524;-73
2024/01/01 01:26:26;;;;;;;80.20;40.50;;;;;;;4.55;100.00;99428.34;110667;1266;22287;-72
2024/01/01 01:29:17;;;;;;;86.80;41.70;;;;;;;4.58;100.00;99425.34;110656;1264;22531;-73
2024/01/01 01:32:09;;;;;;;82.10;41.30;;;;;;;4.59;100.00;99422.27;110663;1273;22201;-73
2024/01/01 01:35:00;;;;;;;92.00;46.10;;;;;;;4.61;100.00;99423.30;110699;1273;22199;-72
2024/01/01 01:37:51;;;;;;;84.60;42.70;;;;;;;4.61;100.00;99422.75;110684;1273;22844;-71
2024/01/01 01:40:40;;;;;;;;;;;;;;;4.62;100.00;99421.75;110708;1273;22518;-72
2024/01/01 01:43:31;;;;;;;76.10;37.80;;;;;;;4.60;100.00;99419.72;110630;1270;22134;-73
2024/01/01 01:46:22;;;;;;;69.80;35.00;;;;;;;4.56;100.00;99418.30;110676;1265;22285;-72
2024/01/01 01:49:13;;;;;;;68.20;34.40;;;;;;;4.51;100.00;99412.34;110719;1267;22238;-71
2024/01/01 01:52:07;;;;;;;69.70;33.70;;;;;;;4.46;100.00;99414.66;110714;1273;22334;-71
2024/01/01 01:54:58;;;;;;;71.40;33.30;;;;;;;4.44;100.00;99421.39;110755;1270;22300;-72
2024/01/01 01:57:49;;;;;;;65.80;29.10;;;;;;;4.44;100.00;99428.18;110686;1272;22230;-72
2024/01/01 02:00:40;;;;;;;47.60;19.40;;;;;;;4.47;100.00;99438.10;110711;1273;22216;-72
2024/01/01 02:03:31;;;;;;;40.60;17.50;;;;;;;4.53;100.00;99443.95;110727;1267;22142;-73
2024/01/01 02:06:20;;;;;;;;;;;;;;;4.58;100.00;99454.11;110739;1268;23570;-72
2024/01/01 02:09:11;;;;;;;35.70;12.30;;;;;;;4.63;100.00;99453.30;110721;1267;22244;-73
2024/01/01 02:12:03;;;;;;;31.10;11.80;;;;;;;4.69;100.00;99444.63;110718;1273;22360;-73
2024/01/01 02:14:54;;;;;;;33.50;11.80;;;;;;;4.74;100.00;99437.28;110713;1268;23614;-72
2024/01/01 02:17:45;;;;;;;33.50;11.70;;;;;;;4.79;100.00;99429.65;110725;1273;22157;-74
2024/01/01 02:20:36;;;;;;;33.60;12.30;;;;;;;4.83;100.00;99422.11;110731;1270;22331;-72
2024/01/01 02:23:26;;;;;;;33.30;12.60;;;;;;;4.86;100.00;99430.35;110724;1273;22161;-73
2024/01/01 02:26:17;;;;;;;;;;;;;;;4.88;100.00;99433.89;110757;1259;22395;-72
2024/01/01 02:29:07;;;;;;;28.40;11.10;;;;;;;4.91;100.00;99434.41;110749;1266;22208;-72
2024/01/01 02:31:56;;;;;;;;;;;;;;;4.93;100.00;99433.13;110690;1274;22224;-72
2024/01/01 02:34:49;;;;;;;30.00;11.60;;;;;;;4.95;100.00;99433.52;110645;1274;22171;-73
2024/01/01 02:37:40;;;;;;;33.70;10.70;;;;;;;4.99;100.00;99432.61;110683;1264;22117;-73
2024/01/01 02:40:31;;;;;;;32.60;13.20;;;;;;;5.01;100.00;99423.27;110705;1270;22260;-71
2024/01/01 02:43:22;;;;;;;31.70;12.30;;;;;;;5.02;100.00;99410.38;110730;1268;22130;-72
2024/01/01 02:46:11;;;;;;;;;;;;;;;5.06;100.00;99408.52;110750;1270;22406;-72
2024/01/01 02:49:02;;;;;;;32.50;11.50;;;;;;;5.05;100.00;99401.17;110747;1272;23416;-72
2024/01/01 02:51:51;;;;;;;;;;;;;;;5.07;100.00;99396.84;110733;1273;22602;-72
2024/01/01 02:54:42;;;;;;;33.30;12.50;;;;;;;5.06;100.00;99391.18;110714;1273;22180;-71
2024/01/01 02:57:33;;;;;;;33.70;12.30;;;;;;;5.06;100.00;99386.38;110718;1273;22616;-73
2024/01/01 03:00:24;;;;;;;33.20;13.30;;;;;;;5.05;100.00;99379.54;110737;1273;23238;-72
2024/01/01 03:03:14;;;;;;;36.60;14.60;;;;;;;5.04;100.00;99379.41;110740;1273;22298;-72
2024/01/01 03:06:03;;;;;;;;;;;;;;;5.05;100.00;99375.11;110751;1269;23082;-71
2024/01/01 03:08:54;;;;;;;42.40;18.00;;;;;;;5.04;100.00;99370.95;110708;1270;22172;-71
2024/01/01 03:11:45;;;;;;;41.10;19.40;;;;;;;5.04;100.00;99363.91;110737;1268;23134;-72
2024/01/01 03:14:36;;;;;;;46.60;19.70;;;;;;;5.04;100.00;99354.20;110732;1268;22236;-72
2024/01/01 03:17:27;;;;;;;41.60;18.40;;;;;;;5.05;100.00;99352.32;110739;1273;22194;-72
2024/01/01 03:20:16;;;;;;;;;;;;;;;5.05;100.00;99350.76;110740;1273;23218;-73
2024/01/01 03:23:07;;;;;;;38.70;17.70;;;;;;;5.02;100.00;99352.79;110749;1273;22384;-74
2024/01/01 03:25:58;;;;;;;37.30;17.70;;;;;;;4.99;100.00;99352.77;110713;1274;22425;-72
2024/01/01 03:28:49;;;;;;;39.40;16.90;;;;;;;4.94;100.00;99356.91;110722;1274;22236;-72
2024/01/01 03:31:43;;;;;;;32.40;14.20;;;;;;;4.91;100.00;99349.84;110726;1274;22434;-71
2024/01/01 03:34:34;;;;;;;29.90;11.80;;;;;;;4.90;100.00;99351.41;110719;1273;22185;-72
2024/01/01 03:37:25;;;;;;;26.60;10.10;;;;;;;4.88;100.00;99348.55;110737;1273;22099;-71
2024/01/01 03:40:17;;;;;;;29.90;11.80;;;;;;;4.89;100.00;99349.48;110714;1273;23427;-73
2024/01/01 03:43:07;;;;;;;34.50;14.60;;;;;;;4.90;100.00;99344.48;110716;1263;22134;-73
2024/01/01 03:45:58;;;;;;;34.10;14.00;;;;;;;4.91;100.00;99345.85;110746;1273;23420;-72
2024/01/01 03:48:49;;;;;;;29.10;12.70;;;;;;;4.90;100.00;99345.79;110709;1264;22817;-71
2024/01/01 03:51:40;;;;;;;30.60;12.80;;;;;;;4.91;100.00;99350.73;110727;1273;22267;-73
2024/01/01 03:54:30;;;;;;;36.70;13.40;;;;;;;4.91;100.00;99347.88;110748;1273;22246;-72
2024/01/01 03:57:21;;;;;;;29.00;12.60;;;;;;;4.92;100.00;99349.11;110735;1273;22216;-72
2024/01/01 04:00:14;;;;;;;35.30;14.10;;;;;;;4.94;100.00;99352.37;110733;1270;22175;-72
2024/01/01 04:03:04;;;;;;;38.60;15.30;;;;;;;4.92;100.00;99358.58;110719;1271;22116;-74
2024/01/01 04:05:57;;;;;;;40.40;14.60;;;;;;;4.92;100.00;99359.61;110678;1273;22923;-72
2024/01/01 04:08:47;;;;;;;30.90;13.20;;;;;;;4.94;100.00;99369.73;110731;1273;22101;-74
2024/01/01 04:11:38;;;;;;;29.10;12.00;;;;;;;4.97;100.00;99378.77;110734;1273;22241;-72
2024/01/01 04:14:29;;;;;;;30.40;12.30;;;;;;;4.99;100.00;99382.23;110723;1266;22175;-72
2024/01/01 04:17:20;;;;;;;30.20;11.80;;;;;;;5.00;100.00;99382.81;110742;1266;22144;-72
2024/01/01 04:20:10;;;;;;;;;;;;;;;4.98;100.00;99381.41;110744;1273;24969;-74
2024/01/01 04:23:01;;;;;;;33.10;11.90;;;;;;;4.94;100.00;99372.24;110744;1273;22220;-71
2024/01/01 04:25:52;;;;;;;26.60;10.30;;;;;;;4.93;100.00;99373.42;110685;1274;22935;-71
2024/01/01 04:28:43;;;;;;;28.00;10.40;;;;;;;4.91;100.00;99370.40;110704;1274;23113;-72
2024/01/01 04:31:34;;;;;;;27.40;9.20;;;;;;;4.90;100.00;99360.48;110730;1273;22167;-72
2024/01/01 04:34:25;;;;;;;23.40;9.40;;;;;;;4.88;100.00;99360.17;110713;1270;22451;-73
2024/01/01 04:37:16;;;;;;;22.00;7.80;;;;;;;4.87;100.00;99359.89;110717;1270;22214;-72
2024/01/01 04:40:08;;;;;;;26.70;9.00;;;;;;;4.87;100.00;99359.35;110758;1273;22202;-71
2024/01/01 04:42:59;;;;;;;24.90;8.80;;;;;;;4.89;100.00;99352.16;110756;1273;22068;-72
2024/01/01 04:45:50;;;;;;;23.00;7.90;;;;;;;4.90;100.00;99355.63;110728;1271;22149;-73
2024/01/01 04:48:41;;;;;;;29.30;8.60;;;;;;;4.90;100.00;99349.05;110705;1268;22267;-72
2024/01/01 04:51:31;;;;;;;28.90;10.10;;;;;;;4.89;100.00;99377.59;110738;1273;22271;-72
2024/01/01 04:54:22;;;;;;;30.70;9.40;;;;;;;4.87;100.00;99372.41;110739;1262;22112;-72
2024/01/01 04:57:11;;;;;;;;;;;;;;;4.87;100.00;99367.48;110770;1271;22440;-72
2024/01/01 05:00:02;;;;;;;27.50;9.70;;;;;;;4.87;100.00;99363.46;110753;1273;22144;-71
2024/01/01 05:02:55;;;;;;;23.30;7.90;;;;;;;4.89;100.00;99354.92;110735;1273;22212;-72
2024/01/01 05:05:46;;;;;;;24.40;8.60;;;;;;;4.91;100.00;99345.91;110777;1259;22187;-72
2024/01/01 05:08:37;;;;;;;26.90;8.30;;;;;;;4.90;100.00;99348.86;110756;1270;22141;-71
2024/01/01 05:11:29;;;;;;;24.20;7.80;;;;;;;4.91;100.00;99340.38;110697;1266;22160;-71
2024/01/01 05:14:20;;;;;;;26.10;9.30;;;;;;;4.93;100.00;99337.45;110740;1266;22358;-72
2024/01/01 05:17:11;;;;;;;26.00;9.60;;;;;;;4.95;100.00;99333.25;110694;1266;22353;-72
2024/01/01 05:20:03;;;;;;;24.20;9.70;;;;;;;4.98;100.00;99333.27;110729;1269;22515;-74
2024/01/01 05:22:54;;;;;;;28.20;9.10;;;;;;;5.00;100.00;99323.33;110746;1273;22921;-72
2024/01/01 05:25:45;;;;;;;20.70;7.80;;;;;;;5.01;100.00;99317.16;110738;1273;23260;-74
2024/01/01 05:28:36;;;;;;;20.20;7.60;;;;;;;5.02;100.00;99316.29;110755;1266;22402;-71
2024/01/01 05:31:27;;;;;;;26.20;7.50;;;;;;;5.02;100.00;99314.06;110728;1273;23295;-73
2024/01/01 05:34:19;;;;;;;22.80;8.20;;;;;;;5.02;100.00;99316.92;110731;1268;22207;-71
2024/01/01 05:37:10;;;;;;;21.80;7.30;;;;;;;5.00;100.00;99318.66;110732;1266;22377;-73
2024/01/01 05:39:59;;;;;;;;;;;;;;;4.99;100.00;99320.46;110677;1267;22424;-71
2024/01/01 05:42:50;;;;;;;24.70;8.40;;;;;;;4.99;100.00;99320.77;110753;1262;22981;-72
2024/01/01 05:45:40;;;;;;;23.90;7.90;;;;;;;5.00;100.00;99321.02;110730;1270;22220;-73
2024/01/01 05:48:29;;;;;;;;;;;;;;;5.00;100.00;99327.28;110720;1270;22337;-71
2024/01/01 05:51:20;;;;;;;22.30;7.50;;;;;;;4.97;100.00;99339.88;110728;1261;22169;-72
2024/01/01 05:54:11;;;;;;;27.90;10.30;;;;;;;4.97;100.00;99333.27;110714;1268;22393;-72
2024/01/01 05:57:00;;;;;;;;;;;;;;;4.98;100.00;99320.03;110746;1273;22342;-73
2024/01/01 05:59:51;;;;;;;25.90;10.30;;;;;;;4.98;100.00;99313.77;110745;1267;22270;-72
2024/01/01 06:02:42;;;;;;;26.50;9.30;;;;;;;4.97;100.00;99314.70;110726;1258;22231;-72
2024/01/01 06:05:34;;;;;;;29.60;10.40;;;;;;;4.97;100.00;99319.02;110707;1262;23147;-72
2024/01/01 06:08:25;;;;;;;27.60;9.50;;;;;;;4.98;100.00;99313.37;110761;1266;22219;-72
2024/01/01 06:11:16;;;;;;;26.40;8.90;;;;;;;4.99;100.00;99315.95;110748;1266;22297;-73
2024/01/01 06:14:07;;;;;;;26.40;9.20;;;;;;;5.01;100.00;99324.39;110729;1267;22316;-74
2024/01/01 06:16:57;;;;;;;;;;;;;;;5.02;100.00;99330.57;110768;1270;22425;-72
2024/01/01 06:19:50;;;;;;;28.00;10.80;;;;;;;5.03;100.00;99322.88;110794;1273;22233;-72
2024/01/01 06:22:41;;;;;;;23.10;8.60;;;;;;;5.02;100.00;99327.80;110747;1268;22367;-72
2024/01/01 06:25:32;;;;;;;22.80;8.10;;;;;;;5.03;100.00;99320.13;110746;1271;22945;-71
2024/01/01 06:28:25;;;;;;;26.20;10.00;;;;;;;5.02;100.00;99319.51;110794;1270;22237;-72
2024/01/01 06:31:16;;;;;;;26.10;9.80;;;;;;;5.02;100.00;99323.77;110773;1273;22320;-72
2024/01/01 06:34:07;;;;;;;28.50;12.30;;;;;;;5.03;100.00;99330.38;110744;1268;22259;-72
2024/01/01 06:36:57;;;;;;;27.60;10.70;;;;;;;5.04;100.00;99333.02;110774;1269;22941;-72
2024/01/01 06:39:48;;;;;;;29.80;10.50;;;;;;;5.06;100.00;99334.28;110761;1269;22241;-72
2024/01/01 06:42:39;;;;;;;27.40;10.40;;;;;;;5.07;100.00;99336.67;110769;1273;22300;-73
2024/01/01 06:45:30;;;;;;;30.30;11.20;;;;;;;5.08;100.00;99342.64;110752;1270;23201;-72
2024/01/01 06:48:22;;;;;;;26.50;10.50;;;;;;;5.09;100.00;99350.05;110740;1273;22123;-71
2024/01/01 06:51:12;;;;;;;29.40;10.60;;;;;;;5.10;100.00;99359.88;110757;1270;22247;-73
2024/01/01 06:54:03;;;;;;;26.20;11.00;;;;;;;5.10;100.00;99360.31;110696;1268;22252;-72
2024/01/01 06:56:54;;;;;;;32.90;12.70;;;;;;;5.11;100.00;99360.02;110730;1269;23579;-72
2024/01/01 06:59:45;;;;;;;38.60;13.30;;;;;;;5.11;100.00;99363.90;110741;1269;22348;-72
2024/01/01 07:02:36;;;;;;;32.30;13.00;;;;;;;5.11;100.00;99362.08;110773;1268;22095;-72
2024/01/01 07:05:29;;;;;;;31.00;12.60;;;;;;;5.12;100.00;99355.89;110713;1266;23128;-71
2024/01/01 07:08:20;;;;;;;31.70;13.00;;;;;;;5.13;100.00;99357.50;110747;1273;22608;-72
2024/01/01 07:11:09;;;;;;;;;;;;;;;5.14;100.00;99357.48;110774;1266;22384;-72
2024/01/01 07:13:59;;;;;;;34.30;14.30;;;;;;;5.12;100.00;99357.39;110778;1273;23130;-72
2024/01/01 07:16:50;;;;;;;33.40;13.70;;;;;;;5.13;100.00;99355.64;110763;1273;22151;-71
2024/01/01 07:19:42;;;;;;;34.60;14.10;;;;;;;5.13;100.00;99343.92;110718;1274;22168;-72
2024/01/01 07:22:33;;;;;;;35.50;14.70;;;;;;;5.12;100.00;99347.73;110809;1271;22115;-73
2024/01/01 07:25:24;;;;;;;35.50;14.10;;;;;;;5.13;100.00;99357.91;110775;1270;22556;-72
2024/01/01 07:28:15;;;;;;;31.20;13.10;;;;;;;5.12;100.00;99365.33;110791;1270;22164;-72
2024/01/01 07:31:06;;;;;;;34.20;13.80;;;;;;;5.12;100.00;99365.31;110754;1273;22129;-72
2024/01/01 07:33:57;;;;;;;32.30;14.10;;;;;;;5.10;100.00;99371.62;110733;1270;22206;-71
2024/01/01 07:36:48;;;;;;;36.50;14.50;;;;;;;5.07;100.00;99373.29;110739;1269;22262;-71
2024/01/01 07:39:39;;;;;;;31.60;12.80;;;;;;;5.07;100.00;99379.83;110784;1273;23168;-71
2024/01/01 07:42:30;;;;;;;31.10;12.90;;;;;;;5.05;100.00;99378.48;110782;1270;22314;-72
2024/01/01 07:45:22;;;;;;;30.00;12.90;;;;;;;5.06;100.00;99382.11;110750;1273;22134;-72
2024/01/01 07:48:12;;;;;;;28.00;11.70;;;;;;;5.05;100.00;99388.23;110746;1273;23039;-71
2024/01/01 07:51:02;;;;;;;;;;;;;;;5.03;100.00;99384.66;110816;1273;22492;-71
2024/01/01 07:53:53;;;;;;;36.40;12.00;;;;;;;5.02;100.00;99384.64;110776;1273;22146;-71
2024/01/01 07:56:47;;;;;;;32.10;11.00;;;;;;;5.03;100.00;99385.95;110777;1273;22101;-71
2024/01/01 07:59:38;;;;;;;29.40;11.10;;;;;;;5.03;100.00;99384.84;110788;1267;22379;-71
2024/01/01 08:02:27;;;;;;;;;;;;;;;5.01;100.00;99386.66;110808;1273;22302;-71
2024/01/01 08:05:18;;;;;;;30.70;12.00;;;;;;;4.99;100.00;99388.58;110754;1273;23378;-71
2024/01/01 08:08:09;;;;;;;25.90;10.30;;;;;;;4.98;100.00;99388.20;110760;1266;22196;-73
2024/01/01 08:11:00;;;;;;;30.20;11.30;;;;;;;5.00;100.00;99388.69;110804;1273;22256;-72
2024/01/01 08:13:51;;;;;;;34.50;11.80;;;;;;;5.02;100.00;99389.21;110787;1273;22183;-71
2024/01/01 08:16:42;;;;;;;30.30;10.70;;;;;;;5.04;100.00;99388.50;110771;1273;22680;-72
2024/01/01 08:19:32;;;;;;;26.70;9.50;;;;;;;5.04;100.00;99392.13;110792;1273;22362;-71
2024/01/01 08:22:23;;;;;;;30.90;11.40;;;;;;;5.05;100.00;99387.21;110801;1270;22207;-72
2024/01/01 08:25:14;;;;;;;31.70;10.50;;;;;;;5.05;100.00;99388.43;110789;1273;22150;-72
2024/01/01 08:28:03;;;;;;;;;;;;;;;5.06;100.00;99383.03;110781;1271;22427;-72
2024/01/01 08:30:54;;;;;;;27.10;10.50;;;;;;;5.06;100.00;99383.48;110757;1273;22182;-71
2024/01/01 08:33:45;;;;;;;28.10;9.20;;;;;;;5.08;100.00;99385.64;110784;1270;22162;-71
2024/01/01 08:36:36;;;;;;;25.10;8.90;;;;;;;5.10;100.00;99383.11;110822;1268;22102;-71
2024/01/01 08:39:27;;;;;;;22.70;9.00;;;;;;;5.11;100.00;99385.33;110703;1268;22110;-72
2024/01/01 08:42:18;;;;;;;28.20;10.40;;;;;;;5.12;100.00;99387.27;110817;1273;22364;-71
2024/01/01 08:45:10;;;;;;;26.00;8.90;;;;;;;5.15;100.00;99383.45;110843;1270;22143;-74
2024/01/01 08:48:01;;;;;;;28.40;10.20;;;;;;;5.17;100.00;99382.56;110785;1270;22177;-72
2024/01/01 08:50:52;;;;;;;31.20;10.90;;;;;;;5.18;100.00;99379.52;110830;1271;22911;-72
2024/01/01 08:53:42;;;;;;;48.70;18.10;;;;;;;5.20;100.00;99384.89;110738;1268;22244;-71
2024/01/01 08:56:33;;;;;;;52.00;21.20;;;;;;;5.20;100.00;99385.73;110816;1273;22344;-71
2024/01/01 08:59:24;;;;;;;42.70;17.00;;;;;;;5.23;100.00;99390.11;110795;1266;22383;-71
2024/01/01 09:02:16;;;;;;;34.90;12.90;;;;;;;5.26;100.00;99391.86;110811;1266;23070;-71
2024/01/01 09:05:08;;;;;;;29.10;11.40;;;;;;;5.31;100.00;99394.65;110825;1266;22310;-72
2024/01/01 09:07:59;;;;;;;33.40;12.70;;;;;;;5.33;100.00;99391.70;110743;1274;22177;-71
2024/01/01 09:10:50;;;;;;;27.90;10.80;;;;;;;5.36;100.00;99388.76;110728;1264;23077;-73
2024/01/01 09:13:43;;;;;;;30.90;10.40;;;;;;;5.37;100.00;99386.28;110757;1274;22188;-71
2024/01/01 09:16:34;;;;;;;26.20;10.20;;;;;;;5.39;100.00;99382.09;110849;1273;22357;-72
2024/01/01 09:19:23;;;;;;;;;;;;;;;5.43;100.00;99377.35;110798;1270;22292;-72
2024/01/01 09:22:13;;;;;;;27.20;9.40;;;;;;;5.46;100.00;99377.64;110846;1271;22340;-72
2024/01/01 09:25:03;;;;;;;;;;;;;;;5.51;100.00;99374.49;110806;1268;22499;-72
2024/01/01 09:27:54;;;;;;;25.30;8.80;;;;;;;5.54;100.00;99373.48;110832;1262;22921;-72
2024/01/01 09:30:45;;;;;;;28.50;9.60;;;;;;;5.57;100.00;99374.70;110797;1273;22141;-72
2024/01/01 09:33:38;;;;;;;27.30;8.90;;;;;;;5.60;100.00;99375.02;110776;1265;22175;-71
2024/01/01 09:36:29;;;;;;;23.60;9.00;;;;;;;5.64;100.00;99372.27;110815;1273;22370;-71
2024/01/01 09:39:20;;;;;;;25.20;8.50;;;;;;;5.67;100.00;99375.09;110835;1271;22172;-73
2024/01/01 09:42:11;;;;;;;23.70;8.70;;;;;;;5.70;100.00;99374.07;110814;1273;22315;-71
2024/01/01 09:45:01;;;;;;;27.60;8.90;;;;;;;5.72;100.00;99374.86;110805;1273;22152;-71
2024/01/01 09:47:51;;;;;;;26.00;9.40;;;;;;;5.73;100.00;99369.65;110803;1273;22285;-71
2024/01/01 09:50:43;;;;;;;25.90;9.70;;;;;;;5.75;100.00;99374.73;110688;1266;141017;-71
2024/01/01 09:53:34;;;;;;;28.40;10.90;;;;;;;5.78;100.00;99374.20;110826;1271;22139;-72
2024/01/01 09:56:24;;;;;;;30.00;11.70;;;;;;;5.81;100.00;99375.98;110818;1273;22234;-71
2024/01/01 09:59:36;;;;;;;33.90;11.70;;;;;;;5.84;100.00;99375.43;110784;1266;22310;-71
2024/01/01 10:02:28;;;;;;;32.70;12.90;;;;;;;5.87;100.00;99373.27;110794;1272;24018;-70
2024/01/01 10:05:20;;;;;;;35.20;13.00;;;;;;;5.89;100.00;99369.52;110809;1272;22131;-71
2024/01/01 10:08:12;;;;;;;30.40;12.00;;;;;;;5.92;100.00;99371.84;110770;1265;22195;-72
2024/01/01 10:11:18;;;;;;;32.40;12.50;;;;;;;5.94;100.00;99376.17;110745;1273;22842;-72
2024/01/01 10:14:09;;;;;;;31.60;12.40;;;;;;;5.97;100.00;99380.61;110809;1266;23160;-71
2024/01/01 10:17:13;;;;;;;29.50;11.50;;;;;;;5.99;100.00;99380.17;110789;1272;22139;-72
2024/01/01 10:20:05;;;;;;;28.90;12.20;;;;;;;6.03;100.00;99381.66;110789;1270;22292;-71
2024/01/01 10:22:56;;;;;;;30.80;10.70;;;;;;;6.07;100.00;99374.74;110794;1270;22108;-71
2024/01/01 10:25:46;;;;;;;30.30;12.50;;;;;;;6.09;100.00;99377.39;110820;1272;22237;-72
2024/01/01 10:28:37;;;;;;;29.80;12.00;;;;;;;6.14;100.00;99376.12;110798;1272;22262;-72
2024/01/01 10:31:29;;;;;;;32.50;11.40;;;;;;;6.19;100.00;99375.64;110811;1272;22304;-72
2024/01/01 10:34:20;;;;;;;31.40;12.00;;;;;;;6.22;100.00;99371.38;110832;1266;22153;-71
2024/01/01 10:37:11;;;;;;;32.20;12.90;;;;;;;6.26;100.00;99377.66;110837;1272;22344;-72
2024/01/01 10:40:05;;;;;;;37.20;14.10;;;;;;;6.29;100.00;99380.15;110715;1272;22327;-73
2024/01/01 10:42:58;;;;;;;37.90;15.30;;;;;;;6.32;100.00;99379.10;110763;1272;22303;-72
2024/01/01 10:45:49;;;;;;;38.20;14.40;;;;;;;6.34;100.00;99376.33;110743;1268;22393;-72
2024/01/01 10:48:42;;;;;;;35.40;13.50;;;;;;;6.38;100.00;99376.20;110777;1269;22233;-73
2024/01/01 10:51:54;;;;;;;28.50;10.90;;;;;;;6.41;100.00;99374.11;110753;1258;22123;-72
2024/01/01 10:55:11;;;;;;;31.10;11.80;;;;;;;6.43;100.00;99371.92;110816;1272;23039;-72
2024/01/01 10:58:22;;;;;;;30.20;11.80;;;;;;;6.47;100.00;99366.17;110772;1266;22936;-72
2024/01/01 11:01:17;;;;;;;30.10;11.90;;;;;;;6.51;100.00;99362.23;110731;1265;22191;-72
2024/01/01 11:04:08;;;;;;;30.70;12.60;;;;;;;6.57;100.00;99360.27;110728;1266;22340;-73
2024/01/01 11:07:02;;;;;;;33.50;13.50;;;;;;;6.64;100.00;99358.83;110796;1272;23075;-72
2024/01/01 11:09:53;;;;;;;30.00;10.90;;;;;;;6.68;100.00;99359.67;110815;1273;23151;-72
2024/01/01 11:12:44;;;;;;;32.40;12.00;;;;;;;6.71;100.00;99351.83;110804;1272;22355;-72
2024/01/01 11:15:45;;;;;;;33.20;13.80;;;;;;;6.73;100.00;99346.73;110792;1273;22330;-71
2024/01/01 11:18:38;;;;;;;29.70;11.90;;;;;;;6.76;100.00;99346.58;110726;1267;22130;-72
2024/01/01 11:21:31;;;;;;;32.70;12.90;;;;;;;6.80;100.00;99345.09;110824;1266;22177;-72
2024/01/01 11:24:45;;;;;;;32.50;11.30;;;;;;;6.85;100.00;99342.69;110797;1265;22686;-72
2024/01/01 11:27:45;;;;;;;27.80;11.00;;;;;;;6.91;100.00;99342.29;108513;1272;25405;-73
2024/01/01 11:30:41;;;;;;;34.70;12.20;;;;;;;6.93;100.00;99337.79;107616;1266;22588;-71
2024/01/01 11:33:32;;;;;;;33.20;11.50;;;;;;;6.94;99.85;99339.17;107700;1272;22922;-72
2024/01/01 11:36:23;;;;;;;27.10;10.50;;;;;;;6.93;99.62;99339.21;107652;1264;23009;-71
2024/01/01 11:39:14;;;;;;;27.30;9.40;;;;;;;6.91;99.36;99335.92;107753;1273;24361;-71
2024/01/01 11:42:06;;;;;;;25.50;9.70;;;;;;;6.91;99.19;99339.77;107677;1269;22575;-72
2024/01/01 11:45:09;;;;;;;24.20;8.30;;;;;;;6.90;98.85;99339.86;107837;1272;23645;-72
2024/01/01 11:48:06;;;;;;;22.70;8.70;;;;;;;6.88;98.49;99338.65;110724;1269;22249;-72
2024/01/01 11:50:59;;;;;;;22.00;7.30;;;;;;;6.86;98.31;99333.88;110782;1272;22104;-71
2024/01/01 11:54:03;;;;;;;18.90;6.00;;;;;;;6.86;98.10;99334.29;110762;1266;22370;-73
2024/01/01 11:56:56;;;;;;;21.30;6.30;;;;;;;6.85;97.92;99334.26;110734;1269;22591;-71
2024/01/01 11:59:49;;;;;;;21.30;5.80;;;;;;;6.86;98.10;99333.66;110735;1269;22378;-74
2024/01/01 12:02:39;;;;;;;19.10;5.80;;;;;;;6.86;98.18;99327.57;110785;1270;22179;-72
2024/01/01 12:05:31;;;;;;;24.50;7.50;;;;;;;6.87;98.29;99327.53;110758;1271;22147;-72
2024/01/01 12:08:22;;;;;;;21.50;8.10;;;;;;;6.87;98.20;99324.81;110796;1272;22896;-71
2024/01/01 12:11:16;;;;;;;20.60;7.20;;;;;;;6.88;98.17;99325.18;110800;1273;23117;-71
2024/01/01 12:14:08;;;;;;;21.70;7.10;;;;;;;6.88;98.24;99327.95;110785;1273;22094;-71
2024/01/01 12:16:59;;;;;;;25.30;8.80;;;;;;;6.88;98.09;99324.38;110774;1273;22090;-71
2024/01/01 12:19:50;;;;;;;;;;;;;;;6.91;98.28;99324.29;110740;1270;22332;-71
2024/01/01 12:22:41;;;;;;;22.70;7.30;;;;;;;6.93;98.20;99321.30;110721;1270;23156;-72
2024/01/01 12:25:32;;;;;;;18.10;5.50;;;;;;;6.97;97.80;99325.55;110706;1268;22501;-71
2024/01/01 12:28:23;;;;;;;20.10;6.20;;;;;;;7.02;97.86;99321.66;110745;1265;23048;-72
2024/01/01 12:31:14;;;;;;;23.90;6.90;;;;;;;7.06;97.87;99321.65;110771;1266;22379;-72
2024/01/01 12:34:05;;;;;;;18.80;6.50;;;;;;;7.11;97.86;99319.16;110792;1266;22177;-73
2024/01/01 12:36:58;;;;;;;19.90;7.10;;;;;;;7.16;97.48;99320.59;110806;1273;22071;-73
2024/01/01 12:39:50;;;;;;;19.40;6.90;;;;;;;7.20;97.49;99326.02;110776;1266;22181;-72
2024/01/01 12:42:41;;;;;;;21.70;6.30;;;;;;;7.25;96.95;99328.19;110770;1273;22227;-71
2024/01/01 12:45:32;;;;;;;17.50;5.90;;;;;;;7.29;96.77;99329.31;110806;1265;22922;-72
2024/01/01 12:48:24;;;;;;;18.60;6.20;;;;;;;7.32;96.90;99332.70;110740;1269;22138;-71
2024/01/01 12:51:18;;;;;;;20.60;6.40;;;;;;;7.35;96.50;99332.85;110755;1268;22421;-72
2024/01/01 12:54:10;;;;;;;21.90;7.40;;;;;;;7.38;96.65;99329.06;108440;1273;22582;-72
2024/01/01 12:57:01;;;;;;;22.80;6.10;;;;;;;7.41;96.58;99328.80;107641;1272;22646;-71
2024/01/01 12:59:53;;;;;;;16.30;4.90;;;;;;;7.42;96.18;99325.34;109594;1268;22622;-71
2024/01/01 13:02:44;;;;;;;18.90;5.70;;;;;;;7.44;95.99;99323.05;109831;1270;22534;-71
2024/01/01 13:05:37;;;;;;;16.90;5.90;;;;;;;7.46;95.65;99324.98;107670;1271;25516;-71
2024/01/01 13:08:29;;;;;;;17.90;5.30;;;;;;;7.47;95.24;99327.95;110791;1270;22172;-71
2024/01/01 13:11:22;;;;;;;18.50;4.70;;;;;;;7.47;94.82;99327.45;110791;1273;22157;-72